sim
Sign-in with your pilot id or email,
or register
Callsign
Passwort

Schedule Details

Flight Number: DLH2458
Departure: Munich Airport (EDDM) at 07:00
Arrival: Tromso Airport (ENTC) at 10:30
Route: Lufthansa Passenger Schedule. Enter filed route here before submitting Pirep.

Weather Information
Getting current METAR information for EDDM 221920Z VRB02KT CAVOK 17/15 Q1010 NOSIG
Getting current METAR information for ENTC 221920Z 23022KT 9999 -SHRA SCT019 BKN035 05/03 Q0996 NOSIG RMK WIND 2600FT 21017KT

Schedule Frequency

Route Map